Time;durP1;ratioP1;P1;durP2;ratioP2;P2;SDS_P1;SDS_P2;PMS_P1;PMS_P2;Temp;Humidity;BMP_temperature;BMP_pressure;BME280_temperature;BME280_humidity;BME280_pressure;Samples;Min_cycle;Max_cycle;Signal;HPM_P1;HPM_P2
2021/03/19 00:01:24;;;;;;;8.23;3.53;;;4.80;89.20;;;;;;5054940;28;20037;-75
2021/03/19 00:03:49;;;;;;;10.97;4.40;;;4.70;88.80;;;;;;5055465;28;20036;-74
2021/03/19 00:06:15;;;;;;;8.13;4.03;;;4.70;89.00;;;;;;5055377;28;20025;-74
2021/03/19 00:08:41;;;;;;;8.27;4.13;;;4.60;88.60;;;;;;5055606;28;20033;-74
2021/03/19 00:11:06;;;;;;;8.07;3.83;;;4.70;88.90;;;;;;5055464;28;20423;-74
2021/03/19 00:13:32;;;;;;;12.80;4.80;;;4.60;88.90;;;;;;5071873;28;20033;-79
2021/03/19 00:15:58;;;;;;;10.93;4.03;;;4.60;90.00;;;;;;5056814;28;20037;-79
2021/03/19 00:18:23;;;;;;;7.53;4.07;;;4.50;89.80;;;;;;5056480;28;20448;-79
2021/03/19 00:20:50;;;;;;;10.23;3.90;;;4.50;89.80;;;;;;5056483;28;20033;-79
2021/03/19 00:23:16;;;;;;;10.00;4.13;;;4.50;89.80;;;;;;5071454;28;20040;-79
2021/03/19 00:25:43;;;;;;;11.57;5.43;;;4.50;89.60;;;;;;5054866;28;20041;-79
2021/03/19 00:28:15;;;;;;;11.53;4.07;;;4.40;89.90;;;;;;5056169;28;20017;-79
2021/03/19 00:30:43;;;;;;;8.43;4.40;;;4.40;89.80;;;;;;5055874;28;20075;-79
2021/03/19 00:33:09;;;;;;;13.00;4.27;;;4.40;89.80;;;;;;5054908;28;20041;-79
2021/03/19 00:35:35;;;;;;;10.60;4.20;;;4.30;89.80;;;;;;5054722;28;20078;-79
2021/03/19 00:38:01;;;;;;;8.63;3.83;;;4.30;89.80;;;;;;5054843;28;20029;-78
2021/03/19 00:40:27;;;;;;;8.97;4.00;;;4.20;89.70;;;;;;5054617;28;20032;-79
2021/03/19 00:42:53;;;;;;;7.97;4.27;;;4.20;89.90;;;;;;5054702;28;20468;-79
2021/03/19 00:45:19;;;;;;;12.07;4.57;;;4.10;90.00;;;;;;5054485;28;20049;-79
2021/03/19 00:47:45;;;;;;;9.63;4.63;;;4.10;90.10;;;;;;5055686;28;20021;-79
2021/03/19 00:50:14;;;;;;;7.60;4.43;;;4.10;90.00;;;;;;5055524;28;20354;-79
2021/03/19 00:52:40;;;;;;;9.13;4.73;;;4.00;90.20;;;;;;5054263;28;20029;-79
2021/03/19 00:55:08;;;;;;;7.83;4.27;;;4.00;90.10;;;;;;5054689;28;20037;-79
2021/03/19 00:57:34;;;;;;;11.63;4.50;;;4.00;90.40;;;;;;5055408;28;20032;-74
2021/03/19 00:59:59;;;;;;;9.70;4.57;;;4.00;90.60;;;;;;5037775;28;20028;-74
2021/03/19 01:02:25;;;;;;;14.67;5.67;;;3.90;90.30;;;;;;5070862;28;20029;-74
2021/03/19 01:04:55;;;;;;;8.03;4.53;;;3.90;90.30;;;;;;5055477;28;20056;-74
2021/03/19 01:07:21;;;;;;;9.83;4.80;;;3.80;90.20;;;;;;5055669;28;20043;-74
2021/03/19 01:09:46;;;;;;;9.13;4.80;;;3.80;90.20;;;;;;5055579;28;20107;-74
2021/03/19 01:12:12;;;;;;;9.93;4.20;;;3.80;90.30;;;;;;5055955;28;20037;-74
2021/03/19 01:14:38;;;;;;;9.73;4.97;;;3.70;90.20;;;;;;5054180;28;20033;-74
2021/03/19 01:17:04;;;;;;;10.57;5.73;;;3.70;90.30;;;;;;5054470;28;20033;-74
2021/03/19 01:19:29;;;;;;;9.50;5.17;;;3.70;90.60;;;;;;5055676;28;20033;-74
2021/03/19 01:21:55;;;;;;;12.17;5.63;;;3.70;90.60;;;;;;5054015;28;20033;-74
2021/03/19 01:24:21;;;;;;;9.33;5.73;;;3.60;90.50;;;;;;5054383;28;20038;-74
2021/03/19 01:26:46;;;;;;;11.20;5.67;;;3.60;90.50;;;;;;5055283;28;20481;-74
2021/03/19 01:29:12;;;;;;;9.40;4.83;;;3.60;90.80;;;;;;5053860;28;20086;-74
2021/03/19 01:31:37;;;;;;;11.30;6.80;;;3.50;90.60;;;;;;5053753;28;20029;-75
2021/03/19 01:34:04;;;;;;;12.70;6.27;;;3.50;90.90;;;;;;5053682;28;20029;-74
2021/03/19 01:36:29;;;;;;;12.43;5.73;;;3.50;90.90;;;;;;5070328;28;20051;-75
2021/03/19 01:38:55;;;;;;;10.33;5.53;;;3.40;90.80;;;;;;5053860;28;20040;-74
2021/03/19 01:41:21;;;;;;;12.50;5.63;;;3.40;90.80;;;;;;5070050;28;20037;-74
2021/03/19 01:44:02;;;;;;;9.83;5.93;;;3.40;90.90;;;;;;5054969;28;20048;-74
2021/03/19 01:47:05;;;;;;;11.40;7.00;;;3.30;91.00;;;;;;5053291;28;20032;-79
2021/03/19 01:50:08;;;;;;;13.00;6.97;;;3.30;91.10;;;;;;5053243;28;20540;-78
2021/03/19 01:53:11;;;;;;;14.27;6.80;;;3.30;91.30;;;;;;5054694;28;20029;-78
2021/03/19 01:56:14;;;;;;;13.07;6.50;;;3.20;91.40;;;;;;5054478;28;20032;-78
2021/03/19 01:59:17;;;;;;;12.03;6.57;;;3.20;91.30;;;;;;5054633;28;20036;-79
2021/03/19 02:02:20;;;;;;;16.87;7.63;;;3.10;91.50;;;;;;5053021;28;20472;-79
2021/03/19 02:05:23;;;;;;;14.70;6.90;;;3.10;91.40;;;;;;5054172;28;20032;-79
2021/03/19 02:08:40;;;;;;;17.13;7.93;;;3.10;91.30;;;;;;5052931;28;20040;-79
2021/03/19 02:11:43;;;;;;;14.13;7.73;;;3.10;91.30;;;;;;5053002;28;20473;-79
2021/03/19 02:14:46;;;;;;;12.47;6.40;;;3.00;91.60;;;;;;5054211;28;20086;-79
2021/03/19 02:17:49;;;;;;;11.50;6.70;;;3.00;91.70;;;;;;5054102;28;20052;-79
2021/03/19 02:20:52;;;;;;;14.47;8.00;;;3.00;91.60;;;;;;5054002;28;20036;-79
2021/03/19 02:23:55;;;;;;;13.47;7.70;;;2.90;91.90;;;;;;5054032;28;20490;-79
2021/03/19 02:26:58;;;;;;;17.83;8.00;;;2.90;91.90;;;;;;5052732;28;20128;-79
2021/03/19 02:30:01;;;;;;;16.10;7.97;;;2.90;91.80;;;;;;5052693;28;20062;-79
2021/03/19 02:32:28;;;;;;;16.80;7.70;;;2.80;91.80;;;;;;5052519;28;20021;-79
2021/03/19 02:35:08;;;;;;;14.53;7.77;;;2.80;91.80;;;;;;5053796;28;20075;-79
2021/03/19 02:37:35;;;;;;;14.03;7.60;;;2.80;91.80;;;;;;5053797;28;20104;-79
2021/03/19 02:40:01;;;;;;;15.10;8.17;;;2.80;91.90;;;;;;5053621;28;20075;-79
2021/03/19 02:42:30;;;;;;;16.67;8.07;;;2.80;92.00;;;;;;5052423;28;20025;-79
2021/03/19 02:44:58;;;;;;;14.30;7.73;;;2.70;92.00;;;;;;5053424;28;20527;-79
2021/03/19 02:47:24;;;;;;;15.10;8.07;;;2.70;92.00;;;;;;5053603;28;20104;-79
2021/03/19 02:49:50;;;;;;;15.60;7.53;;;2.70;92.00;;;;;;5052435;28;20449;-79
2021/03/19 02:52:23;;;;;;;15.93;8.43;;;2.70;91.90;;;;;;5052619;28;20388;-79
2021/03/19 02:54:49;;;;;;;17.50;8.23;;;2.70;92.00;;;;;;5053426;28;20078;-79
2021/03/19 02:57:15;;;;;;;14.47;7.40;;;2.60;92.20;;;;;;5053600;28;20029;-79
2021/03/19 02:59:41;;;;;;;15.23;7.60;;;2.60;91.90;;;;;;5068823;28;20021;-79
2021/03/19 03:02:07;;;;;;;12.53;7.80;;;2.60;91.90;;;;;;5052264;28;20026;-74
2021/03/19 03:04:32;;;;;;;13.37;7.60;;;2.60;91.90;;;;;;5052146;28;20473;-74
2021/03/19 03:06:58;;;;;;;14.17;6.97;;;2.60;92.00;;;;;;5054896;28;20025;-75
2021/03/19 03:09:30;;;;;;;16.63;8.67;;;2.60;91.90;;;;;;5072892;28;20028;-74
2021/03/19 03:11:56;;;;;;;17.40;8.50;;;2.50;91.90;;;;;;5071142;28;20483;-74
2021/03/19 03:14:25;;;;;;;13.50;7.07;;;2.50;91.80;;;;;;5038989;28;20112;-75
2021/03/19 03:16:52;;;;;;;13.70;7.70;;;2.40;92.00;;;;;;5071346;28;20055;-74
2021/03/19 03:19:21;;;;;;;18.57;7.37;;;2.40;91.80;;;;;;5073350;28;20029;-74
2021/03/19 03:21:47;;;;;;;14.57;7.07;;;2.40;91.70;;;;;;5072078;28;20557;-74
2021/03/19 03:24:14;;;;;;;14.40;5.80;;;2.40;91.80;;;;;;5072615;28;20032;-74
2021/03/19 03:26:41;;;;;;;13.47;6.50;;;2.40;91.80;;;;;;5072489;28;20040;-74
2021/03/19 03:29:09;;;;;;;13.67;6.97;;;2.30;91.80;;;;;;5072180;28;20054;-74
2021/03/19 03:31:35;;;;;;;13.37;6.63;;;2.40;92.00;;;;;;5072155;28;20031;-75
2021/03/19 03:34:02;;;;;;;15.93;6.90;;;2.30;92.20;;;;;;5055383;28;20024;-74
2021/03/19 03:36:28;;;;;;;14.73;6.70;;;2.30;91.90;;;;;;5071690;28;20460;-74
2021/03/19 03:38:53;;;;;;;13.63;7.20;;;2.30;91.90;;;;;;5071838;28;20495;-75
2021/03/19 03:41:22;;;;;;;14.93;6.67;;;2.30;91.90;;;;;;5071578;28;20052;-74
2021/03/19 03:43:48;;;;;;;15.40;6.77;;;2.30;91.90;;;;;;5071373;28;20071;-74
2021/03/19 03:46:18;;;;;;;13.63;6.90;;;2.20;91.80;;;;;;5071960;28;20119;-74
2021/03/19 03:48:44;;;;;;;13.27;6.40;;;2.20;91.80;;;;;;5072909;28;20017;-75
2021/03/19 03:51:11;;;;;;;11.97;6.67;;;2.20;91.70;;;;;;5054781;28;20078;-74
2021/03/19 03:53:39;;;;;;;12.43;6.63;;;2.10;92.00;;;;;;5071507;28;20111;-73
2021/03/19 03:56:07;;;;;;;16.30;7.90;;;2.10;92.00;;;;;;5071623;28;20024;-74
2021/03/19 03:58:33;;;;;;;17.17;8.10;;;2.00;92.00;;;;;;5071585;28;20027;-74
2021/03/19 04:00:58;;;;;;;17.07;7.60;;;2.10;92.00;;;;;;5072755;28;20028;-75
2021/03/19 04:03:24;;;;;;;13.83;8.20;;;2.10;92.20;;;;;;5072923;28;20028;-74
2021/03/19 04:05:50;;;;;;;17.40;7.50;;;2.00;92.20;;;;;;5071931;28;20102;-74
2021/03/19 04:08:20;;;;;;;13.87;7.60;;;2.00;92.20;;;;;;5071606;28;20413;-74
2021/03/19 04:10:46;;;;;;;12.30;6.80;;;2.00;92.20;;;;;;5071455;28;20021;-74
2021/03/19 04:13:12;;;;;;;16.10;7.43;;;2.00;92.20;;;;;;5055295;28;20202;-74
2021/03/19 04:15:39;;;;;;;16.00;7.20;;;2.00;92.40;;;;;;5055063;28;20047;-75
2021/03/19 04:18:08;;;;;;;15.30;6.93;;;2.00;92.30;;;;;;5038441;28;20020;-74
2021/03/19 04:20:35;;;;;;;16.67;6.80;;;1.90;92.20;;;;;;5072695;28;20114;-74
2021/03/19 04:23:01;;;;;;;13.53;6.20;;;1.90;92.20;;;;;;5054906;28;20062;-74
2021/03/19 04:25:26;;;;;;;16.00;7.50;;;1.90;92.20;;;;;;5054843;28;20048;-74
2021/03/19 04:27:55;;;;;;;15.47;7.30;;;1.90;92.20;;;;;;5073479;28;20395;-74
2021/03/19 04:30:25;;;;;;;14.60;6.73;;;1.90;92.30;;;;;;5074915;28;20021;-74
2021/03/19 04:32:51;;;;;;;14.63;7.37;;;1.80;92.30;;;;;;5076288;28;20055;-75
2021/03/19 04:35:19;;;;;;;16.73;7.57;;;1.80;92.50;;;;;;5074827;28;20115;-74
2021/03/19 04:37:46;;;;;;;20.67;7.57;;;1.90;92.50;;;;;;5074761;28;20024;-79
2021/03/19 04:40:12;;;;;;;13.97;6.87;;;1.80;92.50;;;;;;5075844;28;20035;-78
2021/03/19 04:42:38;;;;;;;13.13;6.10;;;1.80;92.40;;;;;;5058055;28;20530;-79
2021/03/19 04:45:05;;;;;;;15.87;6.83;;;1.80;92.40;;;;;;5057843;28;20044;-78
2021/03/19 04:47:31;;;;;;;15.90;6.47;;;1.80;92.40;;;;;;5075812;28;20025;-79
2021/03/19 04:49:57;;;;;;;17.63;7.30;;;1.70;92.40;;;;;;5074630;28;20016;-79
2021/03/19 04:52:22;;;;;;;15.90;6.73;;;1.70;92.30;;;;;;5058490;28;20059;-79
2021/03/19 04:54:48;;;;;;;11.87;6.30;;;1.70;92.30;;;;;;5074919;28;20036;-75
2021/03/19 04:57:14;;;;;;;16.90;5.93;;;1.70;92.20;;;;;;5057663;28;20123;-74
2021/03/19 04:59:39;;;;;;;14.63;6.90;;;1.70;92.20;;;;;;5074231;28;20030;-74
2021/03/19 05:02:05;;;;;;;10.90;5.67;;;1.70;92.20;;;;;;5055678;28;20032;-75
2021/03/19 05:04:31;;;;;;;17.27;6.57;;;1.70;92.20;;;;;;5075483;28;20113;-75
2021/03/19 05:07:01;;;;;;;13.27;6.87;;;1.60;92.20;;;;;;5074026;28;20036;-74
2021/03/19 05:09:28;;;;;;;16.93;6.87;;;1.60;92.20;;;;;;5074296;28;20091;-74
2021/03/19 05:11:54;;;;;;;13.53;5.40;;;1.60;92.20;;;;;;5057588;28;20024;-74
2021/03/19 05:14:20;;;;;;;14.20;6.20;;;1.60;92.10;;;;;;5074529;28;20032;-74
2021/03/19 05:16:46;;;;;;;14.93;6.00;;;1.60;92.10;;;;;;5073664;28;20029;-75
2021/03/19 05:19:12;;;;;;;13.30;5.67;;;1.60;92.20;;;;;;5074075;28;20649;-79
2021/03/19 05:21:38;;;;;;;14.13;6.53;;;1.60;92.50;;;;;;5073859;28;20056;-79
2021/03/19 05:24:04;;;;;;;13.57;5.80;;;1.60;92.20;;;;;;5073707;28;20024;-79
2021/03/19 05:26:30;;;;;;;17.93;6.60;;;1.60;92.10;;;;;;5073876;28;20396;-79
2021/03/19 05:28:55;;;;;;;18.23;6.10;;;1.60;92.30;;;;;;5057048;28;20028;-79
2021/03/19 05:31:21;;;;;;;14.07;6.20;;;1.50;92.20;;;;;;5074879;28;20483;-79
2021/03/19 05:33:48;;;;;;;14.87;6.00;;;1.50;92.20;;;;;;5040378;28;20070;-79
2021/03/19 05:36:17;;;;;;;12.57;5.80;;;1.50;92.10;;;;;;5073857;28;20021;-79
2021/03/19 05:38:43;;;;;;;10.57;5.43;;;1.50;92.10;;;;;;5072802;28;20111;-79
2021/03/19 05:41:11;;;;;;;15.83;5.70;;;1.50;92.10;;;;;;5074689;28;20029;-78
2021/03/19 05:43:44;;;;;;;13.30;5.67;;;1.50;92.20;;;;;;5074477;28;20546;-78
2021/03/19 05:46:14;;;;;;;14.35;5.93;;;1.40;92.20;;;;;;5072508;28;20468;-79
2021/03/19 05:48:54;;;;;;;13.80;6.50;;;1.50;92.30;;;;;;5073241;28;20017;-79
2021/03/19 05:51:42;;;;;;;12.73;5.50;;;1.50;92.20;;;;;;5073353;28;20036;-79
2021/03/19 05:54:23;;;;;;;12.33;4.90;;;1.50;92.20;;;;;;5070996;28;20034;-78
2021/03/19 05:57:22;;;;;;;12.07;4.97;;;1.40;92.10;;;;;;5056822;28;20035;-78
2021/03/19 05:59:54;;;;;;;13.47;5.10;;;1.40;92.20;;;;;;5056217;28;20040;-74
2021/03/19 06:02:35;;;;;;;12.63;5.33;;;1.40;92.30;;;;;;5061193;28;20048;-74
2021/03/19 06:05:07;;;;;;;13.73;5.63;;;1.40;92.30;;;;;;5060661;28;20020;-74
2021/03/19 06:07:53;;;;;;;13.30;5.60;;;1.40;92.30;;;;;;5066077;28;20017;-74
2021/03/19 06:10:21;;;;;;;14.97;7.23;;;1.50;92.30;;;;;;5072970;28;20464;-74
2021/03/19 06:13:08;;;;;;;16.87;5.50;;;1.50;92.30;;;;;;5073942;28;20021;-74
2021/03/19 06:15:41;;;;;;;14.63;5.57;;;1.50;92.20;;;;;;5072802;28;20115;-74
2021/03/19 06:18:25;;;;;;;13.77;5.80;;;1.50;92.30;;;;;;5072186;28;20069;-75
2021/03/19 06:21:14;;;;;;;10.05;4.00;;;1.50;92.30;;;;;;5058993;28;20030;-75
2021/03/19 06:23:46;;;;;;;15.37;5.23;;;1.50;92.20;;;;;;5069181;28;20033;-74
2021/03/19 06:26:34;;;;;;;14.80;5.47;;;1.50;92.30;;;;;;5072760;28;20028;-74
2021/03/19 06:29:11;;;;;;;17.67;5.40;;;1.60;92.30;;;;;;5073813;28;20017;-79
2021/03/19 06:31:39;;;;;;;15.07;5.53;;;1.60;92.40;;;;;;5072480;28;20023;-74
2021/03/19 06:34:26;;;;;;;12.73;4.67;;;1.60;92.70;;;;;;5055740;28;20365;-74
2021/03/19 06:37:02;;;;;;;15.97;6.57;;;1.60;92.50;;;;;;5053554;28;20056;-74
2021/03/19 06:39:43;;;;;;;15.87;7.07;;;1.70;92.60;;;;;;5052285;28;20108;-74
2021/03/19 06:42:18;;;;;;;15.10;5.97;;;1.70;92.60;;;;;;5052000;28;20453;-74
2021/03/19 06:45:00;;;;;;;12.93;5.43;;;1.80;92.60;;;;;;5057737;28;20094;-74
2021/03/19 06:47:37;;;;;;;14.47;6.03;;;1.80;92.60;;;;;;5073444;28;20103;-74
2021/03/19 06:50:04;;;;;;;12.40;5.70;;;1.80;92.60;;;;;;5072092;28;20028;-74
2021/03/19 06:52:30;;;;;;;18.00;6.90;;;1.90;92.70;;;;;;5058222;28;20419;-74
2021/03/19 06:55:01;;;;;;;15.70;7.43;;;2.00;92.70;;;;;;5073384;28;20032;-74
2021/03/19 06:57:43;;;;;;;13.53;6.67;;;2.00;92.70;;;;;;5073538;28;20029;-74
2021/03/19 07:00:11;;;;;;;11.97;6.93;;;2.00;92.70;;;;;;5072133;28;20352;-73
2021/03/19 07:02:58;;;;;;;14.20;6.13;;;2.10;92.70;;;;;;5071717;28;20029;-74
2021/03/19 07:05:45;;;;;;;15.87;6.67;;;2.10;92.60;;;;;;5072158;28;20021;-73
2021/03/19 07:08:15;;;;;;;14.87;6.00;;;2.20;92.60;;;;;;5073108;28;20020;-74
2021/03/19 07:10:41;;;;;;;13.80;6.03;;;2.20;92.50;;;;;;5071946;28;20479;-73
2021/03/19 07:13:28;;;;;;;11.30;5.80;;;2.30;92.50;;;;;;5073024;28;20028;-75
2021/03/19 07:16:17;;;;;;;12.63;5.90;;;2.30;92.40;;;;;;5072690;28;20104;-74
2021/03/19 07:18:45;;;;;;;14.53;5.80;;;2.40;92.30;;;;;;5072965;28;20021;-74
2021/03/19 07:21:25;;;;;;;11.93;4.90;;;2.40;92.20;;;;;;5072737;28;20032;-74
2021/03/19 07:24:09;;;;;;;14.27;4.80;;;2.50;92.10;;;;;;5071214;28;20024;-74
2021/03/19 07:26:36;;;;;;;16.52;5.72;;;2.50;92.00;;;;;;5071520;28;20068;-74
2021/03/19 07:29:18;;;;;;;12.13;5.30;;;2.50;91.90;;;;;;5072620;28;20028;-73
2021/03/19 07:31:54;;;;;;;12.70;4.83;;;2.60;91.90;;;;;;5072658;28;20499;-74
2021/03/19 07:34:39;;;;;;;13.90;4.57;;;2.60;91.60;;;;;;5071580;28;20024;-74
2021/03/19 07:37:22;;;;;;;12.80;4.95;;;2.70;91.60;;;;;;5071632;28;20067;-74
2021/03/19 07:40:06;;;;;;;10.10;4.15;;;2.80;91.40;;;;;;5066101;28;20051;-74
2021/03/19 07:42:41;;;;;;;11.20;4.65;;;2.80;91.30;;;;;;5064911;28;20025;-74
2021/03/19 07:45:36;;;;;;;8.43;4.67;;;2.90;91.30;;;;;;5063535;28;20048;-75
2021/03/19 07:48:13;;;;;;;8.87;4.37;;;3.00;91.00;;;;;;5055050;28;20037;-74
2021/03/19 07:50:52;;;;;;;10.90;4.40;;;3.00;90.90;;;;;;5064310;28;20025;-74
2021/03/19 07:53:36;;;;;;;8.70;4.10;;;3.10;90.80;;;;;;5071457;28;20028;-75
2021/03/19 07:56:26;;;;;;;6.97;3.15;;;3.10;90.60;;;;;;5072084;28;20021;-74
2021/03/19 07:59:05;;;;;;;8.23;3.97;;;3.20;90.50;;;;;;5072938;28;20484;-74
2021/03/19 08:01:43;;;;;;;13.50;3.67;;;3.30;90.60;;;;;;5071291;28;20033;-75
2021/03/19 08:04:24;;;;;;;6.10;2.93;;;3.30;90.20;;;;;;5075078;28;20021;-74
2021/03/19 08:06:53;;;;;;;10.10;3.10;;;3.40;90.10;;;;;;5074927;28;20024;-74
2021/03/19 08:09:34;;;;;;;9.23;2.60;;;3.50;90.00;;;;;;5073056;28;20063;-75
2021/03/19 08:12:13;;;;;;;11.53;2.33;;;3.60;89.50;;;;;;5076187;28;20024;-75
2021/03/19 08:14:47;;;;;;;5.07;1.70;;;3.60;87.70;;;;;;5074741;28;20020;-75
2021/03/19 08:17:31;;;;;;;7.22;2.10;;;3.70;87.10;;;;;;5074889;28;20027;-74
2021/03/19 08:20:02;;;;;;;5.50;2.45;;;3.80;86.40;;;;;;5076144;28;20025;-75
2021/03/19 08:22:33;;;;;;;6.50;1.80;;;3.90;85.30;;;;;;5075081;28;20027;-74
2021/03/19 08:25:14;;;;;;;6.33;1.90;;;4.00;84.30;;;;;;5076149;28;20449;-74
2021/03/19 08:28:20;;;;;;;5.20;1.87;;;4.10;84.90;;;;;;5074597;28;20017;-75
2021/03/19 08:31:19;;;;;;;4.97;1.40;;;4.20;84.00;;;;;;5075996;28;20464;-74
2021/03/19 08:34:06;;;;;;;6.27;1.47;;;4.30;83.30;;;;;;5075877;28;20523;-75
2021/03/19 08:36:42;;;;;;;3.77;1.10;;;4.30;81.90;;;;;;5074543;28;20020;-75
2021/03/19 08:39:32;;;;;;;3.47;1.13;;;4.40;80.80;;;;;;5074506;28;20469;-75
2021/03/19 08:42:15;;;;;;;3.93;1.10;;;4.50;80.60;;;;;;5074503;28;20468;-75
2021/03/19 08:44:42;;;;;;;3.63;1.20;;;4.60;80.70;;;;;;5074213;28;20495;-75
2021/03/19 08:47:25;;;;;;;4.07;0.90;;;4.70;80.70;;;;;;5057587;28;20021;-75
2021/03/19 08:49:53;;;;;;;4.83;1.17;;;4.70;81.40;;;;;;5075817;28;20077;-74
2021/03/19 08:52:29;;;;;;;4.77;1.20;;;4.90;80.70;;;;;;5075716;28;20024;-74
2021/03/19 08:55:28;;;;;;;3.33;1.00;;;4.90;80.10;;;;;;5075651;28;20374;-75
2021/03/19 08:57:56;;;;;;;5.23;1.00;;;5.00;79.80;;;;;;5063112;28;20114;-75
2021/03/19 09:00:25;;;;;;;5.07;1.10;;;5.20;79.10;;;;;;5075324;28;20017;-75
2021/03/19 09:03:03;;;;;;;4.60;1.43;;;5.20;78.40;;;;;;5075144;28;20021;-75
2021/03/19 09:06:03;;;;;;;5.17;1.20;;;5.30;78.10;;;;;;5069002;28;20037;-76
2021/03/19 09:08:49;;;;;;;5.63;1.37;;;5.40;75.90;;;;;;5059461;28;20020;-76
2021/03/19 09:11:20;;;;;;;4.77;1.60;;;5.50;75.90;;;;;;5055184;28;20536;-75
2021/03/19 09:14:06;;;;;;;5.53;1.40;;;5.60;75.30;;;;;;5054451;28;20043;-75
2021/03/19 09:16:47;;;;;;;6.10;1.43;;;5.80;75.20;;;;;;5085566;28;20075;-74
2021/03/19 09:19:31;;;;;;;4.43;1.07;;;5.80;76.30;;;;;;5055519;28;20033;-75
2021/03/19 09:22:22;;;;;;;3.83;1.40;;;5.90;76.60;;;;;;5055309;28;20048;-74
2021/03/19 09:25:13;;;;;;;4.00;1.10;;;6.00;74.30;;;;;;5055215;28;20025;-75
2021/03/19 09:27:44;;;;;;;3.97;1.53;;;6.10;74.80;;;;;;5053890;28;20029;-74
2021/03/19 09:30:22;;;;;;;5.37;1.20;;;6.20;73.90;;;;;;5053746;28;20024;-75
2021/03/19 09:32:51;;;;;;;5.73;1.83;;;6.30;73.40;;;;;;5054797;28;20179;-74
2021/03/19 09:35:38;;;;;;;5.03;1.57;;;6.40;74.00;;;;;;5053412;28;20399;-75
2021/03/19 09:38:23;;;;;;;5.50;1.70;;;6.40;74.00;;;;;;5054758;28;20444;-73
2021/03/19 09:40:58;;;;;;;5.73;1.87;;;6.50;73.60;;;;;;5051866;28;20024;-76
2021/03/19 09:43:33;;;;;;;4.90;1.23;;;6.60;73.50;;;;;;5054300;28;20032;-73
2021/03/19 09:46:25;;;;;;;10.70;1.80;;;6.70;71.60;;;;;;5053351;28;20044;-73
2021/03/19 09:48:55;;;;;;;5.17;1.73;;;6.70;71.20;;;;;;5053011;28;20378;-73
2021/03/19 09:51:33;;;;;;;5.57;1.77;;;6.80;70.60;;;;;;5054266;28;20322;-74
2021/03/19 09:54:32;;;;;;;6.13;2.00;;;6.80;70.60;;;;;;5054577;28;20052;-74
2021/03/19 09:57:04;;;;;;;6.50;1.50;;;6.90;70.90;;;;;;5053043;28;20491;-74
2021/03/19 09:59:36;;;;;;;6.03;1.83;;;6.90;71.20;;;;;;5086784;28;20025;-74
2021/03/19 10:02:21;;;;;;;5.60;1.53;;;7.00;69.30;;;;;;5053397;28;20025;-75
2021/03/19 10:04:47;;;;;;;7.00;1.80;;;7.10;70.00;;;;;;5053110;28;20357;-74
2021/03/19 10:07:19;;;;;;;5.27;1.47;;;7.20;68.70;;;;;;5036963;28;20036;-74
2021/03/19 10:09:51;;;;;;;4.93;1.87;;;7.50;69.10;;;;;;5053200;28;20021;-75
2021/03/19 10:12:33;;;;;;;3.63;1.57;;;7.80;68.00;;;;;;5052855;28;20115;-74
2021/03/19 10:15:10;;;;;;;5.77;1.93;;;8.10;66.60;;;;;;5053212;28;20035;-74
2021/03/19 10:17:37;;;;;;;7.80;1.70;;;8.50;66.50;;;;;;5053207;28;20043;-74
2021/03/19 10:20:17;;;;;;;8.23;1.77;;;9.00;67.70;;;;;;5053351;28;20184;-75
2021/03/19 10:22:52;;;;;;;2.80;1.20;;;9.50;64.90;;;;;;5052758;28;20082;-75
2021/03/19 10:25:30;;;;;;;6.32;1.45;;;10.20;64.30;;;;;;5052764;28;20070;-75
2021/03/19 10:28:00;;;;;;;4.28;1.35;;;10.80;63.70;;;;;;5053018;28;20032;-76
2021/03/19 10:30:36;;;;;;;4.32;1.30;;;11.70;63.50;;;;;;5061300;28;20405;-75
2021/03/19 10:33:23;;;;;;;3.70;1.05;;;12.50;61.50;;;;;;5073800;28;20033;-74
2021/03/19 10:35:57;;;;;;;3.90;1.00;;;13.30;62.10;;;;;;5072280;28;20028;-74
2021/03/19 10:38:35;;;;;;;;;;;14.10;62.00;;;;;;5072432;28;20122;-74
2021/03/19 10:41:22;;;;;;;3.72;1.10;;;14.80;57.80;;;;;;5071948;28;20321;-76
2021/03/19 10:44:14;;;;;;;4.35;1.00;;;15.60;56.40;;;;;;5071863;28;20057;-75
2021/03/19 10:46:50;;;;;;;3.30;1.20;;;16.30;55.60;;;;;;5072791;28;20598;-76
2021/03/19 10:49:31;;;;;;;4.90;1.10;;;17.10;55.10;;;;;;5072120;28;20545;-76
2021/03/19 10:52:13;;;;;;;5.55;0.95;;;17.80;52.30;;;;;;5071927;28;20078;-76
2021/03/19 10:54:42;;;;;;;4.10;0.77;;;18.40;51.50;;;;;;5072971;28;20052;-75
2021/03/19 10:57:31;;;;;;;3.28;0.70;;;18.90;51.00;;;;;;5072036;28;20074;-76
2021/03/19 10:59:57;;;;;;;2.15;0.70;;;19.40;45.70;;;;;;5073064;28;20017;-76
2021/03/19 11:02:27;;;;;;;4.38;0.80;;;19.70;43.70;;;;;;5073456;28;20355;-76
2021/03/19 11:04:55;;;;;;;2.97;1.02;;;20.00;42.20;;;;;;5071217;28;20024;-77
2021/03/19 11:07:27;;;;;;;2.72;0.80;;;20.20;41.10;;;;;;5070397;28;20036;-78
2021/03/19 11:10:27;;;;;;;3.88;0.73;;;20.50;41.00;;;;;;5071417;28;20054;-78
2021/03/19 11:12:57;;;;;;;2.60;0.82;;;20.90;40.40;;;;;;5066685;28;20025;-77
2021/03/19 11:15:29;;;;;;;2.20;0.60;;;21.30;40.20;;;;;;5060391;28;20036;-77
2021/03/19 11:18:15;;;;;;;2.50;0.70;;;21.70;40.00;;;;;;5060550;28;20032;-77
2021/03/19 11:20:43;;;;;;;3.95;0.70;;;22.10;39.30;;;;;;5065053;28;20059;-78
2021/03/19 11:23:26;;;;;;;4.18;0.90;;;22.50;39.40;;;;;;5069002;28;20029;-78
2021/03/19 11:25:54;;;;;;;1.70;0.70;;;22.80;37.10;;;;;;5066743;28;20013;-77
2021/03/19 11:28:22;;;;;;;3.67;0.70;;;23.10;36.80;;;;;;5069456;28;20066;-77
2021/03/19 11:30:48;;;;;;;2.45;0.77;;;23.20;35.40;;;;;;5055906;28;20028;-77
2021/03/19 11:33:17;;;;;;;2.25;0.90;;;23.20;33.30;;;;;;5042655;28;20017;-76
2021/03/19 11:36:02;;;;;;;3.03;0.80;;;23.20;32.90;;;;;;5058968;28;20029;-77
2021/03/19 11:38:37;;;;;;;3.95;0.80;;;23.20;32.80;;;;;;5056173;28;20096;-78
2021/03/19 11:41:31;;;;;;;4.93;0.93;;;23.40;31.90;;;;;;5056903;28;20055;-76
2021/03/19 11:43:57;;;;;;;7.18;1.00;;;23.20;30.50;;;;;;5056873;28;20072;-77
2021/03/19 11:46:24;;;;;;;3.95;0.90;;;23.10;31.80;;;;;;5055843;28;20033;-77
2021/03/19 11:48:49;;;;;;;2.65;0.70;;;23.10;31.80;;;;;;5056834;28;20108;-77
2021/03/19 11:51:28;;;;;;;6.07;0.90;;;23.20;32.60;;;;;;5055707;28;20067;-77
2021/03/19 11:53:55;;;;;;;3.83;1.10;;;23.50;31.30;;;;;;5055309;28;20542;-76
2021/03/19 11:56:22;;;;;;;3.47;0.90;;;23.50;30.10;;;;;;5055331;28;20083;-77
2021/03/19 11:58:47;;;;;;;2.30;0.60;;;23.20;30.80;;;;;;5038724;28;20070;-76
2021/03/19 12:01:13;;;;;;;3.33;0.60;;;22.90;31.30;;;;;;5073369;28;20481;-77
2021/03/19 12:03:50;;;;;;;1.33;0.50;;;22.60;31.70;;;;;;5075186;28;20025;-77
2021/03/19 12:06:19;;;;;;;4.65;0.45;;;22.50;32.00;;;;;;5076639;28;20027;-74
2021/03/19 12:08:45;;;;;;;1.90;0.55;;;22.50;32.00;;;;;;5075534;28;20115;-75
2021/03/19 12:11:22;;;;;;;2.40;0.47;;;22.30;31.30;;;;;;5075047;28;20027;-74
2021/03/19 12:13:47;;;;;;;2.22;0.35;;;22.10;31.10;;;;;;5075051;28;20028;-74
2021/03/19 12:16:13;;;;;;;2.65;0.70;;;22.00;31.60;;;;;;5074878;28;20029;-74
2021/03/19 12:18:38;;;;;;;3.47;0.70;;;21.80;31.50;;;;;;5076052;28;20032;-74
2021/03/19 12:21:04;;;;;;;0.82;0.40;;;21.70;31.70;;;;;;5074828;28;20472;-74
2021/03/19 12:23:30;;;;;;;2.13;0.50;;;21.70;31.70;;;;;;5075192;28;20119;-74
2021/03/19 12:25:56;;;;;;;4.13;0.70;;;21.80;32.50;;;;;;5075164;28;20154;-75
2021/03/19 12:28:23;;;;;;;4.20;0.50;;;21.90;32.60;;;;;;5069251;28;20025;-74
2021/03/19 12:30:53;;;;;;;1.08;0.52;;;22.10;32.30;;;;;;5054681;28;20384;-74
2021/03/19 12:33:21;;;;;;;2.58;0.55;;;22.40;31.80;;;;;;5060911;28;20031;-75
2021/03/19 12:35:48;;;;;;;1.05;0.25;;;22.60;31.30;;;;;;5065337;28;20021;-75
2021/03/19 12:38:15;;;;;;;0.82;0.30;;;22.50;31.40;;;;;;5063526;28;20029;-75
2021/03/19 12:40:42;;;;;;;1.98;0.50;;;22.40;31.50;;;;;;5063352;28;20105;-75
2021/03/19 12:43:10;;;;;;;2.85;0.47;;;22.50;31.30;;;;;;5058300;28;20037;-74
2021/03/19 12:45:37;;;;;;;1.80;0.50;;;22.50;31.30;;;;;;5054543;28;20040;-75
2021/03/19 12:48:03;;;;;;;1.45;0.40;;;22.60;30.90;;;;;;5055246;28;20102;-75
2021/03/19 12:50:31;;;;;;;1.58;0.55;;;22.70;30.60;;;;;;5025934;28;20017;-75
2021/03/19 12:52:58;;;;;;;2.55;0.45;;;22.60;30.00;;;;;;5066770;28;20029;-75
2021/03/19 12:55:26;;;;;;;1.98;0.50;;;22.50;30.00;;;;;;5060890;28;20032;-74
2021/03/19 12:57:52;;;;;;;0.82;0.40;;;22.50;30.20;;;;;;5055586;28;20032;-75
2021/03/19 13:00:24;;;;;;;1.85;0.43;;;22.50;30.10;;;;;;5064487;28;20040;-75
2021/03/19 13:02:50;;;;;;;0.95;0.30;;;22.50;30.20;;;;;;5055431;28;20017;-75
2021/03/19 13:05:18;;;;;;;1.23;0.40;;;22.40;30.20;;;;;;5064467;28;20018;-75
2021/03/19 13:07:43;;;;;;;1.13;0.35;;;22.50;30.20;;;;;;5055060;28;20096;-75
2021/03/19 13:10:10;;;;;;;2.25;0.47;;;22.60;30.10;;;;;;5055012;28;20072;-75
2021/03/19 13:12:36;;;;;;;0.65;0.30;;;22.90;30.10;;;;;;5055114;28;20025;-75
2021/03/19 13:15:04;;;;;;;1.88;0.30;;;23.20;30.00;;;;;;5055044;28;20103;-75
2021/03/19 13:17:29;;;;;;;0.90;0.30;;;23.30;29.60;;;;;;5053637;28;20033;-75
2021/03/19 13:19:55;;;;;;;0.85;0.28;;;23.50;29.50;;;;;;5037439;28;20364;-74
2021/03/19 13:22:21;;;;;;;0.45;0.20;;;23.50;29.20;;;;;;5054035;28;20496;-74
2021/03/19 13:24:47;;;;;;;1.33;0.32;;;23.40;29.00;;;;;;5054894;28;20033;-75